Weather History for Pleasanton, TX

Change the Weather History Date:

Monday, February 25, 2013

  Actual Average Record
Temperature  
Mean Temperature 57 °F -  
Max Temperature 66 °F 67 °F 92 °F (2009)
Min Temperature 48 °F 50 °F 40 °F (2011)
Degree Days  
Heating Degree Days 8    
Growing Degree Days 7 (Base 50)    
Moisture  
Dew Point 35 °F    
Average Humidity 48    
Maximum Humidity 97    
Minimum Humidity 15    
Precipitation  
Precipitation 0.00 in - - ()
Sea Level Pressure  
Sea Level Pressure 29.74 in    
Wind  
Wind Speed 14 mph (WNW)    
Max Wind Speed 44 mph    
Max Gust Speed 51 mph    
Visibility 8 miles    
Events Fog , Rain    
Averages and records for this station are not official NWS values.
T = Trace of Precipitation, MM = Missing Value Source: NWS Daily Summary

Daily Weather History Graph

Daily Weather History Graph

Search for Another Location

Airport:

Trip Planner

Search our weather history database for the weather conditions in past years. The results will help you decide how hot, cold, wet, or windy it might be!

Date:

Astronomy

Feb. 25, 2013 Rise Set
Actual Time 7:03 AM CST 6:31 PM CST
Civil Twilight 6:39 AM CST 6:55 PM CST
Nautical Twilight 6:11 AM CST 7:22 PM CST
Astronomical Twilight 5:44 AM CST 7:50 PM CST
Moon 6:40 PM CST (2/25) 6:37 AM CST (2/25)
Length of Visible Light 12h 16m
Length of Day
11h 28m
Full, 100% of the Moon is Illuminated
Feb 25
Full
Feb 25
Full
Mar 4
Last Quarter
Mar 11
New
Mar 19
First Quarter

Hourly Weather History & Observations

Time (CST) Temp. Dew Point Humidity Pressure Visibility Wind Dir Wind Speed Gust Speed Precip Events Conditions
12:15 AM 62.2 °F 60.8 °F 95% 29.58 in 2.5 mi ESE 10.4 mph - N/A   Overcast
12:35 AM 62.2 °F 61.0 °F 96% 29.58 in 2.0 mi ESE 9.2 mph - N/A   Overcast
12:55 AM 62.2 °F 61.2 °F 96% 29.58 in 1.8 mi East 6.9 mph - N/A   Overcast
1:15 AM 62.2 °F 61.2 °F 96% 29.58 in 1.2 mi ESE 5.8 mph - N/A   Overcast
1:35 AM 62.6 °F 61.3 °F 96% 29.59 in 0.8 mi ESE 3.5 mph - N/A   Overcast
1:55 AM 62.6 °F 61.7 °F 97% 29.58 in 0.8 mi SE 9.2 mph - N/A Rain Light Rain
2:15 AM 62.6 °F 61.7 °F 97% 29.58 in 1.8 mi SE 3.5 mph - N/A Rain Light Rain
2:35 AM 62.6 °F 61.7 °F 97% 29.57 in 2.5 mi Calm Calm - N/A Rain Light Rain
2:55 AM 62.6 °F 61.7 °F 97% 29.56 in 2.5 mi Calm Calm - N/A   Overcast
3:15 AM 62.6 °F 61.7 °F 97% 29.57 in 3.0 mi North 5.8 mph - N/A   Overcast
3:35 AM 62.6 °F 61.7 °F 97% 29.57 in 2.5 mi NNW 3.5 mph - N/A   Overcast
3:55 AM 62.6 °F 61.7 °F 97% 29.57 in 1.8 mi Calm Calm - N/A   Overcast
4:15 AM 62.6 °F 61.7 °F 97% 29.59 in 1.8 mi NNW 5.8 mph - N/A   Overcast
4:35 AM 62.6 °F 61.7 °F 97% 29.61 in 2.0 mi NNW 8.1 mph - N/A   Overcast
4:55 AM 62.6 °F 61.7 °F 97% 29.61 in 2.5 mi NNW 6.9 mph - N/A Rain Light Rain
5:15 AM 62.2 °F 61.3 °F 97% 29.61 in 4.0 mi NNW 3.5 mph - N/A   Mostly Cloudy
5:35 AM 61.5 °F 60.6 °F 97% 29.61 in 2.5 mi Calm Calm - N/A   Scattered Clouds
5:55 AM 60.8 °F 59.9 °F 97% 29.62 in 0.2 mi Calm Calm - N/A Fog Fog
6:15 AM 57.7 °F 53.4 °F 85% 29.65 in 10.0 mi NW 18.4 mph 24.2 mph N/A   Mostly Cloudy
6:35 AM 56.5 °F 42.8 °F 60% 29.67 in 10.0 mi NW 9.2 mph - N/A   Scattered Clouds
6:55 AM 55.6 °F 42.1 °F 60% 29.68 in 10.0 mi NW 8.1 mph - N/A   Scattered Clouds
7:15 AM 55.6 °F 42.4 °F 61% 29.70 in 10.0 mi NW 5.8 mph - N/A   Overcast
7:35 AM 55.4 °F 42.4 °F 62% 29.71 in 10.0 mi WNW 5.8 mph - N/A   Overcast
7:55 AM 56.7 °F 39.7 °F 53% 29.72 in 10.0 mi WNW 8.1 mph - N/A   Overcast
8:15 AM 57.6 °F 36.1 °F 45% 29.73 in 10.0 mi WNW 12.7 mph 16.1 mph N/A   Scattered Clouds
8:35 AM 59.0 °F 31.8 °F 36% 29.73 in 10.0 mi WNW 11.5 mph - N/A   Clear
8:55 AM 60.4 °F 29.8 °F 31% 29.73 in 10.0 mi WNW 11.5 mph 16.1 mph N/A   Clear
9:15 AM 62.1 °F 26.1 °F 25% 29.74 in 10.0 mi WNW 17.3 mph 25.3 mph N/A   Clear
9:35 AM 63.3 °F 22.5 °F 21% 29.74 in 10.0 mi WNW 17.3 mph 27.6 mph N/A   Clear
9:55 AM 64.6 °F 19.4 °F 18% 29.73 in 10.0 mi WNW 20.7 mph 29.9 mph N/A   Clear
10:15 AM 65.3 °F 17.8 °F 16% 29.75 in 10.0 mi WNW 26.5 mph 35.7 mph N/A   Clear
10:35 AM 66.4 °F 18.3 °F 16% 29.76 in 10.0 mi West 29.9 mph 40.3 mph N/A   Clear
10:55 AM 66.0 °F 16.5 °F 15% 29.76 in 10.0 mi West 29.9 mph 36.8 mph N/A   Clear
11:15 AM 64.8 °F 15.4 °F 15% 29.77 in 10.0 mi West 34.5 mph 47.2 mph N/A   Clear
11:35 AM 65.5 °F 17.2 °F 16% 29.77 in 10.0 mi West 35.7 mph 50.6 mph N/A   Clear
11:55 AM 64.9 °F 17.8 °F 16% 29.77 in 10.0 mi West 35.7 mph 49.5 mph N/A   Clear
12:15 PM 65.3 °F 20.5 °F 18% 29.77 in 10.0 mi West 29.9 mph 46.0 mph N/A   Unknown
12:35 PM 65.1 °F 22.8 °F 20% 29.76 in 7.0 mi West 40.3 mph 50.6 mph N/A   Clear
12:55 PM 64.4 °F 22.8 °F 21% 29.76 in - West 43.7 mph - N/A   Unknown
1:15 PM 65.1 °F 24.3 °F 21% 29.76 in 10.0 mi West 34.5 mph 48.3 mph N/A   Clear
1:35 PM 64.0 °F 24.8 °F 23% 29.76 in 10.0 mi West 34.5 mph 50.6 mph N/A   Clear
2:15 PM 63.7 °F 25.0 °F 23% 29.76 in 10.0 mi WNW 39.1 mph 50.6 mph N/A   Clear
2:35 PM 64.0 °F 24.6 °F 22% 29.76 in 10.0 mi West 39.1 mph 49.5 mph N/A   Clear
2:55 PM 63.5 °F 24.3 °F 22% 29.75 in 10.0 mi West 32.2 mph 48.3 mph N/A   Clear
3:15 PM 63.3 °F 23.5 °F 22% 29.77 in 7.0 mi WNW 32.2 mph 50.6 mph N/A   Clear
3:35 PM 63.5 °F 23.2 °F 21% 29.78 in 10.0 mi West 35.7 mph 47.2 mph N/A   Clear
3:55 PM 63.0 °F 23.0 °F 22% 29.78 in 7.0 mi West 39.1 mph 47.2 mph N/A   Clear
4:15 PM 63.0 °F 23.5 °F 22% 29.78 in 10.0 mi West 35.7 mph 44.9 mph N/A   Clear
4:35 PM 63.0 °F 23.9 °F 23% 29.78 in 10.0 mi West 31.1 mph 42.6 mph N/A   Clear
4:55 PM 62.8 °F 23.5 °F 22% 29.77 in 10.0 mi WNW 29.9 mph 39.1 mph N/A   Clear
5:15 PM 62.2 °F 22.8 °F 22% 29.77 in 10.0 mi WNW 29.9 mph 40.3 mph N/A   Clear
5:35 PM 61.7 °F 22.8 °F 23% 29.78 in 10.0 mi West 28.8 mph 41.4 mph N/A   Clear
5:55 PM 61.0 °F 23.0 °F 23% 29.79 in 10.0 mi West 28.8 mph 41.4 mph N/A   Clear
6:15 PM 59.9 °F 23.5 °F 25% 29.81 in 10.0 mi WNW 19.6 mph 34.5 mph N/A   Clear
6:35 PM 58.3 °F 23.9 °F 27% 29.82 in 10.0 mi WNW 23.0 mph 34.5 mph N/A   Clear
6:55 PM 56.8 °F 24.8 °F 29% 29.84 in 10.0 mi WNW 15.0 mph 25.3 mph N/A   Clear
7:15 PM 56.5 °F 24.6 °F 29% 29.85 in 10.0 mi WNW 18.4 mph 29.9 mph N/A   Clear
7:35 PM 55.4 °F 25.0 °F 31% 29.86 in 10.0 mi WNW 16.1 mph - N/A   Clear
7:55 PM 55.0 °F 24.8 °F 31% 29.86 in 10.0 mi WNW 13.8 mph 21.9 mph N/A   Clear
8:15 PM 54.7 °F 24.6 °F 31% 29.87 in 10.0 mi WNW 15.0 mph 21.9 mph N/A   Clear
8:35 PM 54.5 °F 24.8 °F 32% 29.88 in 10.0 mi WNW 21.9 mph 28.8 mph N/A   Clear
8:55 PM 53.6 °F 25.3 °F 34% 29.88 in 10.0 mi NW 13.8 mph 21.9 mph N/A   Clear
9:15 PM 52.5 °F 25.9 °F 36% 29.89 in 10.0 mi NW 10.4 mph 17.3 mph N/A   Clear
9:55 PM 49.8 °F 26.6 °F 41% 29.90 in 10.0 mi NW 8.1 mph - N/A   Clear
10:35 PM 48.9 °F 27.1 °F 43% 29.90 in 10.0 mi WNW 8.1 mph - N/A   Clear
10:55 PM 49.6 °F 26.6 °F 41% 29.90 in 10.0 mi NW 9.2 mph 16.1 mph N/A   Clear
11:15 PM 49.1 °F 26.6 °F 42% 29.91 in 10.0 mi WNW 10.4 mph - N/A   Clear
11:35 PM 49.1 °F 26.6 °F 42% 29.91 in 10.0 mi NW 10.4 mph 16.1 mph N/A   Clear
11:55 PM 48.7 °F 26.4 °F 42% 29.91 in 10.0 mi WNW 11.5 mph - N/A   Clear